createdAt,value
2022-08-07T00:02:36.164Z,153748.44
2022-08-07T00:04:11.433Z,153779.41
2022-08-07T00:06:52.185Z,153794.94
2022-08-07T00:09:22.451Z,153789.81
2022-08-07T00:11:55.674Z,153797.53
2022-08-07T00:14:31.326Z,153813.03
2022-08-07T00:16:59.904Z,153787.19
2022-08-07T00:20:00.398Z,153767.78
2022-08-07T00:22:34.570Z,153740.66
2022-08-07T00:25:03.896Z,153761.38
2022-08-07T00:27:51.890Z,153736.78
2022-08-07T00:30:21.789Z,153735.53
2022-08-07T00:32:55.712Z,153779.41
2022-08-07T00:35:23.284Z,153765.19
2022-08-07T00:37:51.661Z,153771.69
2022-08-07T00:40:39.982Z,153707.09
2022-08-07T00:43:09.930Z,153736.78
2022-08-07T00:45:39.501Z,153686.41
2022-08-07T00:48:11.010Z,153722.59
2022-08-07T00:50:46.168Z,153716.13
2022-08-07T00:53:20.164Z,153838.88
2022-08-07T00:56:02.158Z,153784.59
2022-08-07T00:58:30.978Z,153696.72
2022-08-07T01:01:00.358Z,153710.94
2022-08-07T01:03:56.660Z,153707.09
2022-08-07T01:06:17.289Z,153704.50
2022-08-07T01:08:53.079Z,153700.59
2022-08-07T01:12:10.025Z,153673.47
2022-08-07T01:14:09.661Z,153663.16
2022-08-07T01:16:39.807Z,153667.03
2022-08-07T01:19:18.878Z,153593.38
2022-08-07T01:21:50.005Z,153645.03
2022-08-07T01:24:22.244Z,153714.81
2022-08-07T01:26:52.775Z,153677.38
2022-08-07T01:29:23.390Z,153646.34
2022-08-07T01:31:59.377Z,153661.84
2022-08-07T01:34:30.721Z,153647.66
2022-08-07T01:37:00.182Z,153619.22
2022-08-07T01:39:40.437Z,153575.28
2022-08-07T01:42:38.269Z,153564.91
2022-08-07T01:45:03.605Z,153566.22
2022-08-07T01:48:29.616Z,153548.13
2022-08-07T01:50:28.537Z,153552.00
2022-08-07T01:53:01.175Z,153523.59
2022-08-07T01:55:40.202Z,153499.06
2022-08-07T01:58:29.064Z,153505.56
2022-08-07T02:01:09.398Z,153492.63
2022-08-07T02:03:48.729Z,153518.47
2022-08-07T02:06:30.794Z,153514.56
2022-08-07T02:09:04.489Z,153510.69
2022-08-07T02:12:03.572Z,153502.97
2022-08-07T02:14:36.620Z,153484.88
2022-08-07T02:17:11.175Z,153464.22
2022-08-07T02:20:05.005Z,153446.13
2022-08-07T02:22:31.726Z,153477.13
2022-08-07T02:25:01.604Z,153473.25
2022-08-07T02:27:35.936Z,153446.13
2022-08-07T02:30:09.802Z,153471.94
2022-08-07T02:32:39.462Z,153410.00
2022-08-07T02:36:29.914Z,153386.72
2022-08-07T02:38:15.776Z,153367.41
2022-08-07T02:40:46.603Z,153406.13
2022-08-07T02:43:16.398Z,153398.41
2022-08-07T02:46:00.694Z,153407.41
2022-08-07T02:48:29.609Z,153417.72
2022-08-07T02:50:58.316Z,153384.19
2022-08-07T02:53:38.638Z,153360.91
2022-08-07T02:56:17.401Z,153376.41
2022-08-07T02:58:51.081Z,153373.81
2022-08-07T03:01:35.739Z,153358.34
2022-08-07T03:04:07.202Z,153297.69
2022-08-07T03:06:37.612Z,153299.00
2022-08-07T03:09:07.875Z,153275.78
2022-08-07T03:11:52.476Z,153266.72
2022-08-07T03:14:25.765Z,153261.59
2022-08-07T03:16:53.366Z,153203.47
2022-08-07T03:19:21.572Z,153202.16
2022-08-07T03:21:51.118Z,153193.16
2022-08-07T03:24:26.878Z,153218.94
2022-08-07T03:27:01.059Z,153199.56
2022-08-07T03:29:33.888Z,153224.06
2022-08-07T03:32:13.071Z,153211.19
2022-08-07T03:34:47.472Z,153211.19
2022-08-07T03:37:37.376Z,153181.53
2022-08-07T03:40:15.856Z,153169.88
2022-08-07T03:42:46.218Z,153167.34
2022-08-07T03:45:29.457Z,153142.81
2022-08-07T03:47:58.980Z,153151.88
2022-08-07T03:50:28.630Z,153146.69
2022-08-07T03:52:57.984Z,153172.47
2022-08-07T03:55:53.406Z,153177.66
2022-08-07T03:59:05.243Z,153198.28
2022-08-07T04:01:02.655Z,153216.34
2022-08-07T04:03:49.537Z,153227.97
2022-08-07T04:06:38.024Z,153233.16
2022-08-07T04:09:05.599Z,153255.09
2022-08-07T04:12:26.933Z,153236.97
2022-08-07T04:14:37.690Z,153224.06
2022-08-07T04:17:19.855Z,153265.41
2022-08-07T04:19:52.187Z,153257.69
2022-08-07T04:22:27.384Z,153296.41
2022-08-07T04:24:58.187Z,153275.78
2022-08-07T04:27:26.552Z,153273.19
2022-08-07T04:30:01.055Z,153262.88
2022-08-07T04:32:34.377Z,153289.97
2022-08-07T04:35:03.896Z,153314.50
2022-08-07T04:38:00.924Z,153308.00
2022-08-07T04:40:20.738Z,153271.91
2022-08-07T04:42:52.369Z,153337.69
2022-08-07T04:45:57.447Z,153306.72
2022-08-07T04:48:13.863Z,153358.34
2022-08-07T04:50:54.129Z,153360.91
2022-08-07T04:53:39.966Z,153402.22
2022-08-07T04:58:11.699Z,153420.31
2022-08-07T05:00:12.066Z,153468.06
2022-08-07T05:02:16.617Z,153469.38
2022-08-07T05:04:50.321Z,153500.38
2022-08-07T05:07:30.386Z,153544.28
2022-08-07T05:10:01.779Z,153597.28
2022-08-07T05:12:37.440Z,153616.63
2022-08-07T05:15:25.332Z,153614.09
2022-08-07T05:17:58.005Z,153714.81
2022-08-07T05:20:33.405Z,153811.75
2022-08-07T05:23:15.318Z,153784.59
2022-08-07T05:26:11.524Z,153869.97
2022-08-07T05:28:34.560Z,153919.09
2022-08-07T05:31:03.697Z,153944.94
2022-08-07T05:33:36.992Z,153985.00
2022-08-07T05:36:07.961Z,154014.78
2022-08-07T05:38:58.104Z,154031.59
2022-08-07T05:42:02.583Z,153995.34
2022-08-07T05:44:29.200Z,154012.19
2022-08-07T05:46:58.106Z,154048.38
2022-08-07T05:49:40.436Z,154107.88
2022-08-07T05:52:11.777Z,154132.47
2022-08-07T05:54:53.100Z,154137.69
2022-08-07T05:57:26.561Z,154115.63
2022-08-07T05:59:58.715Z,154074.22
2022-08-07T06:02:30.758Z,154069.09
2022-08-07T06:05:04.496Z,154106.59
2022-08-07T06:08:14.775Z,154144.13
2022-08-07T06:10:21.167Z,154131.16
2022-08-07T06:12:50.125Z,154104.00
2022-08-07T06:15:20.010Z,154124.72
2022-08-07T06:17:53.364Z,154219.22
2022-08-07T06:20:25.648Z,154162.28
2022-08-07T06:23:45.781Z,154216.63
2022-08-07T06:26:00.072Z,154291.63
2022-08-07T06:28:28.665Z,154353.81
2022-08-07T06:30:58.204Z,154377.09
2022-08-07T06:33:26.617Z,154454.81
2022-08-07T06:36:13.026Z,154496.25
2022-08-07T06:38:59.214Z,154516.97
2022-08-07T06:42:01.529Z,154537.69
2022-08-07T06:44:22.392Z,154607.63
2022-08-07T06:46:53.716Z,154638.78
2022-08-07T06:49:51.136Z,154612.84
2022-08-07T06:52:31.718Z,154698.34
2022-08-07T06:55:31.345Z,154659.50
2022-08-07T06:57:59.880Z,154708.75
2022-08-07T07:00:28.641Z,154751.47
2022-08-07T07:02:58.261Z,154812.41
2022-08-07T07:06:03.685Z,154824.06
2022-08-07T07:08:18.921Z,154952.47
2022-08-07T07:10:57.073Z,155174.28
2022-08-07T07:13:56.072Z,155145.72
2022-08-07T07:16:27.592Z,155356.00
2022-08-07T07:19:11.215Z,155741.78
2022-08-07T07:22:04.900Z,155965.38
2022-08-07T07:24:56.636Z,156189.06
2022-08-07T07:27:35.838Z,156319.25
2022-08-07T07:30:26.536Z,156251.53
2022-08-07T07:33:07.642Z,156182.59
2022-08-07T07:35:54.770Z,156255.47
2022-08-07T07:38:25.884Z,156198.22
2022-08-07T07:41:02.152Z,156186.50
2022-08-07T07:43:47.695Z,155863.94
2022-08-07T07:46:37.965Z,155769.06
2022-08-07T07:50:15.889Z,155520.94
2022-08-07T07:51:57.847Z,155615.75
2022-08-07T07:54:28.359Z,155682.00
2022-08-07T07:56:58.911Z,155644.34
2022-08-07T07:59:52.210Z,155708.03
2022-08-07T08:02:34.140Z,155666.41
2022-08-07T08:05:05.452Z,155657.31
2022-08-07T08:07:59.909Z,155678.09
2022-08-07T08:10:35.683Z,155759.97
2022-08-07T08:13:10.600Z,155804.16
2022-08-07T08:15:58.905Z,155841.84
2022-08-07T08:18:29.484Z,155837.94
2022-08-07T08:20:59.625Z,155914.69
2022-08-07T08:23:47.381Z,156036.91
2022-08-07T08:26:34.651Z,156005.69
2022-08-07T08:29:05.784Z,155986.16
2022-08-07T08:32:17.092Z,156066.78
2022-08-07T08:34:29.415Z,156100.66
2022-08-07T08:36:58.808Z,156155.28
2022-08-07T08:39:39.727Z,156072.00
2022-08-07T08:42:25.767Z,156090.25
2022-08-07T08:45:04.087Z,156273.69
2022-08-07T08:47:52.199Z,156358.28
2022-08-07T08:50:28.259Z,156487.19
2022-08-07T08:53:07.203Z,156540.56
2022-08-07T08:55:55.379Z,156390.84
2022-08-07T08:58:34.948Z,156155.28
2022-08-07T09:01:15.375Z,156048.59
2022-08-07T09:03:55.453Z,156079.81
2022-08-07T09:06:36.517Z,156083.75
2022-08-07T09:09:20.815Z,155914.69
2022-08-07T09:12:02.771Z,155925.09
2022-08-07T09:16:20.344Z,156055.06
2022-08-07T09:18:20.588Z,156168.28
2022-08-07T09:21:01.915Z,155991.38
2022-08-07T09:24:32.048Z,155906.88
2022-08-07T09:26:32.171Z,155850.94
2022-08-07T09:30:01.042Z,155956.31
2022-08-07T09:31:57.799Z,156038.22
2022-08-07T09:34:33.580Z,156256.75
2022-08-07T09:37:07.100Z,156362.19
2022-08-07T09:39:54.568Z,156457.25
2022-08-07T09:42:38.765Z,156402.53
2022-08-07T09:46:29.070Z,156321.88
2022-08-07T09:48:14.614Z,156198.22
2022-08-07T09:51:03.956Z,156347.88
2022-08-07T09:53:55.096Z,156301.00
2022-08-07T09:56:46.933Z,156386.91
2022-08-07T09:59:44.666Z,156111.06
2022-08-07T10:02:55.145Z,156250.25
2022-08-07T10:05:59.164Z,156075.91
2022-08-07T10:08:45.188Z,156285.41
2022-08-07T10:12:01.359Z,156251.53
2022-08-07T10:14:31.723Z,156199.50
2022-08-07T10:17:16.517Z,156366.06
2022-08-07T10:20:13.063Z,156397.31
2022-08-07T10:22:58.415Z,156312.72
2022-08-07T10:25:45.736Z,156086.34
2022-08-07T10:28:35.903Z,156059.00
2022-08-07T10:31:38.657Z,156116.28
2022-08-07T10:34:32.188Z,155974.47
2022-08-07T10:37:12.775Z,156052.53
2022-08-07T10:40:03.216Z,156212.53
2022-08-07T10:42:41.179Z,156271.06
2022-08-07T10:45:45.117Z,156288.00
2022-08-07T10:48:34.983Z,156239.84
2022-08-07T10:51:16.879Z,156181.28
2022-08-07T10:54:07.465Z,156282.84
2022-08-07T10:56:44.923Z,156350.50
2022-08-07T10:59:44.153Z,156472.88
2022-08-07T11:02:33.627Z,156574.38
2022-08-07T11:05:14.808Z,156687.75
2022-08-07T11:08:00.478Z,156646.06
2022-08-07T11:10:37.381Z,156386.91
2022-08-07T11:14:41.830Z,156428.56
2022-08-07T11:16:07.093Z,156392.13
2022-08-07T11:18:37.919Z,156394.69
2022-08-07T11:21:14.210Z,156478.06
2022-08-07T11:23:52.101Z,156402.53
2022-08-07T11:26:29.127Z,156418.16
2022-08-07T11:29:05.726Z,156285.41
2022-08-07T11:31:49.950Z,156354.34
2022-08-07T11:34:25.602Z,156435.03
2022-08-07T11:37:00.760Z,156621.34
2022-08-07T11:40:00.991Z,156535.34
2022-08-07T11:42:40.118Z,156523.63
2022-08-07T11:45:23.781Z,156566.59
2022-08-07T11:48:29.866Z,156608.28
2022-08-07T11:51:41.453Z,156537.94
2022-08-07T11:54:17.442Z,156480.66
2022-08-07T11:57:14.137Z,156578.31
2022-08-07T12:00:10.988Z,156562.69
2022-08-07T12:03:41.521Z,156536.66
2022-08-07T12:06:37.229Z,156405.16
2022-08-07T12:09:16.501Z,156410.31
2022-08-07T12:12:09.958Z,156495.00
2022-08-07T12:14:55.450Z,156626.50
2022-08-07T12:17:35.290Z,156399.91
2022-08-07T12:20:18.497Z,156547.06
2022-08-07T12:23:15.066Z,156574.38
2022-08-07T12:26:03.083Z,156574.38
2022-08-07T12:28:49.787Z,156524.94
2022-08-07T12:31:27.764Z,156521.03
2022-08-07T12:34:17.140Z,156467.66
2022-08-07T12:36:49.331Z,156545.75
2022-08-07T12:39:44.302Z,156577.00
2022-08-07T12:42:12.102Z,156493.69
2022-08-07T12:44:45.076Z,156448.09
2022-08-07T12:47:26.790Z,156380.38
2022-08-07T12:50:05.006Z,156342.66
2022-08-07T12:52:54.954Z,156448.09
2022-08-07T12:55:41.053Z,156450.72
2022-08-07T12:58:13.389Z,156569.22
2022-08-07T13:00:50.871Z,156440.31
2022-08-07T13:04:02.068Z,156514.53
2022-08-07T13:07:00.824Z,156556.16
2022-08-07T13:10:20.426Z,156592.63
2022-08-07T13:13:02.114Z,156604.34
2022-08-07T13:15:38.208Z,156631.75
2022-08-07T13:18:26.582Z,156590.03
2022-08-07T13:21:00.766Z,156527.56
2022-08-07T13:24:00.607Z,156530.13
2022-08-07T13:26:35.039Z,156603.03
2022-08-07T13:29:12.452Z,156446.84
2022-08-07T13:31:57.879Z,156472.88
2022-08-07T13:34:38.087Z,156505.41
2022-08-07T13:37:20.065Z,156574.38
2022-08-07T13:40:35.588Z,156541.88
2022-08-07T13:42:45.650Z,156578.31
2022-08-07T13:46:06.665Z,156552.28
2022-08-07T13:48:08.825Z,156537.94
2022-08-07T13:51:00.009Z,156545.75
2022-08-07T13:53:55.288Z,156453.34
2022-08-07T13:56:35.942Z,156454.63
2022-08-07T13:59:12.612Z,156441.63
2022-08-07T14:01:51.495Z,156496.28
2022-08-07T14:04:35.691Z,156452.03
2022-08-07T14:07:09.273Z,156502.78
2022-08-07T14:10:01.534Z,156527.56
2022-08-07T14:12:36.287Z,156467.66
2022-08-07T14:15:19.160Z,156536.66
2022-08-07T14:18:24.450Z,156579.63
2022-08-07T14:20:49.164Z,156595.25
2022-08-07T14:23:58.921Z,156579.63
2022-08-07T14:26:23.654Z,156596.56
2022-08-07T14:29:10.669Z,156558.75
2022-08-07T14:31:56.160Z,156553.59
2022-08-07T14:34:29.878Z,156433.75
2022-08-07T14:37:01.714Z,156441.63
2022-08-07T14:40:16.375Z,156489.75
2022-08-07T14:43:55.186Z,156488.47
2022-08-07T14:48:20.935Z,156411.63
2022-08-07T14:50:53.265Z,156405.16
2022-08-07T14:54:05.600Z,156383.00
2022-08-07T14:56:14.061Z,156389.53
2022-08-07T14:58:44.784Z,156445.53
2022-08-07T15:01:22.475Z,156493.69
2022-08-07T15:03:52.487Z,156459.88
2022-08-07T15:06:26.516Z,156498.91
2022-08-07T15:08:55.784Z,156474.19
2022-08-07T15:14:21.731Z,156446.84
2022-08-07T15:16:55.596Z,156409.00
2022-08-07T15:22:23.175Z,156412.94
2022-08-07T15:25:16.942Z,156433.75
2022-08-07T15:28:30.697Z,156433.75
2022-08-07T15:33:33.634Z,156457.25
2022-08-07T15:36:07.485Z,156453.34
2022-08-07T15:38:59.158Z,156488.47
2022-08-07T15:42:45.203Z,156449.41
2022-08-07T15:44:23.620Z,156412.94
2022-08-07T15:46:58.256Z,156381.69
2022-08-07T15:52:30.215Z,156333.56
2022-08-07T15:55:02.739Z,156329.66
2022-08-07T15:57:47.627Z,156321.88
2022-08-07T16:00:31.002Z,156405.16
2022-08-07T16:03:04.566Z,156412.94
2022-08-07T16:05:33.007Z,156392.13
2022-08-07T16:08:32.553Z,156407.72
2022-08-07T16:10:58.558Z,156409.00
2022-08-07T16:14:03.303Z,156375.22
2022-08-07T16:16:43.005Z,156368.69
2022-08-07T16:19:42.898Z,156376.50
2022-08-07T16:22:38.732Z,156329.66
2022-08-07T16:25:55.555Z,156314.03
2022-08-07T16:30:07.141Z,156406.41
2022-08-07T16:31:51.477Z,156371.28
2022-08-07T16:34:37.767Z,156312.72
2022-08-07T16:38:05.267Z,156290.63
2022-08-07T16:40:35.385Z,156325.72
2022-08-07T16:43:12.903Z,156319.25
2022-08-07T16:46:11.043Z,156319.25
2022-08-07T16:50:29.278Z,156295.84
2022-08-07T16:52:51.964Z,156256.75
2022-08-07T16:55:15.002Z,156259.31
2022-08-07T16:58:01.974Z,156243.72
2022-08-07T17:00:40.871Z,156295.84
2022-08-07T17:03:18.452Z,156288.00
2022-08-07T17:06:18.856Z,156228.13
2022-08-07T17:09:10.797Z,156212.53
2022-08-07T17:12:04.977Z,156230.69
2022-08-07T17:14:38.244Z,156243.72
2022-08-07T17:17:16.127Z,156225.53
2022-08-07T17:20:02.620Z,156232.00
2022-08-07T17:22:57.127Z,156207.31
2022-08-07T17:25:47.729Z,156181.28
2022-08-07T17:28:22.160Z,156125.34
2022-08-07T17:30:59.407Z,156165.66
2022-08-07T17:34:10.022Z,156153.97
2022-08-07T17:36:26.166Z,156124.06
2022-08-07T17:39:10.500Z,156121.44
2022-08-07T17:42:02.531Z,156121.44
2022-08-07T17:44:42.691Z,156094.13
2022-08-07T17:47:38.723Z,156085.03
2022-08-07T17:50:16.747Z,156098.03
2022-08-07T17:52:55.332Z,156039.47
2022-08-07T17:56:00.112Z,156039.47
2022-08-07T17:58:31.338Z,155982.28
2022-08-07T18:01:03.635Z,155925.09
2022-08-07T18:04:06.910Z,155971.88
2022-08-07T18:06:43.071Z,155979.69
2022-08-07T18:09:17.872Z,155969.31
2022-08-07T18:12:19.971Z,156003.06
2022-08-07T18:15:02.719Z,155964.09
2022-08-07T18:18:47.450Z,155974.47
2022-08-07T18:21:03.253Z,155897.78
2022-08-07T18:23:42.984Z,155835.38
2022-08-07T18:26:22.453Z,155926.41
2022-08-07T18:30:06.902Z,155847.06
2022-08-07T18:32:08.874Z,155830.16
2022-08-07T18:35:00.859Z,155879.53
2022-08-07T18:38:55.284Z,155815.88
2022-08-07T18:40:53.438Z,155876.91
2022-08-07T18:43:48.861Z,155749.59
2022-08-07T18:46:27.379Z,155767.75
2022-08-07T18:50:30.759Z,155650.81
2022-08-07T18:52:33.817Z,155601.47
2022-08-07T18:54:52.081Z,155578.06
2022-08-07T18:57:38.606Z,155604.06
2022-08-07T19:00:32.890Z,155526.09
2022-08-07T19:03:11.944Z,155572.88
2022-08-07T19:06:02.051Z,155479.34
2022-08-07T19:08:46.631Z,155420.91
2022-08-07T19:11:36.002Z,155484.50
2022-08-07T19:14:17.399Z,155401.41
2022-08-07T19:17:05.612Z,155349.50
2022-08-07T19:19:49.017Z,155337.81
2022-08-07T19:22:31.166Z,155276.81
2022-08-07T19:24:58.970Z,155275.50
2022-08-07T19:28:58.268Z,155237.88
2022-08-07T19:31:00.402Z,155209.34
2022-08-07T19:33:17.263Z,155204.13
2022-08-07T19:35:54.664Z,155157.41
2022-08-07T19:38:24.458Z,155170.41
2022-08-07T19:41:00.422Z,155152.25
2022-08-07T19:43:48.720Z,155108.13
2022-08-07T19:46:32.014Z,155097.75
2022-08-07T19:49:05.949Z,155048.44
2022-08-07T19:51:52.680Z,155044.53
2022-08-07T19:54:33.334Z,155016.00
2022-08-07T19:58:01.301Z,154988.75
2022-08-07T20:00:09.057Z,155006.94
2022-08-07T20:02:53.272Z,154945.97
2022-08-07T20:05:27.911Z,154914.84
2022-08-07T20:07:59.098Z,154926.56
2022-08-07T20:10:35.535Z,154942.06
2022-08-07T20:13:23.685Z,154939.50
2022-08-07T20:15:53.995Z,154899.31
2022-08-07T20:18:32.261Z,154895.44
2022-08-07T20:21:14.432Z,154859.03
2022-08-07T20:23:54.081Z,154866.84
2022-08-07T20:26:29.901Z,154843.53
2022-08-07T20:29:10.160Z,154830.56
2022-08-07T20:31:46.548Z,154795.56
2022-08-07T20:34:34.422Z,154809.81
2022-08-07T20:37:10.191Z,154751.47
2022-08-07T20:40:02.677Z,154729.47
2022-08-07T20:42:30.896Z,154708.75
2022-08-07T21:02:01.507Z,154667.28
2022-08-07T21:04:32.332Z,154619.28
2022-08-07T21:07:03.909Z,154662.09
2022-08-07T21:09:52.528Z,154669.84
2022-08-07T21:12:30.934Z,154667.28
2022-08-07T21:15:03.835Z,154677.66
2022-08-07T21:18:03.121Z,154698.34
2022-08-07T21:20:29.861Z,154641.38
2022-08-07T21:23:08.304Z,154620.59
2022-08-07T21:25:56.097Z,154628.38
2022-08-07T21:28:50.048Z,154607.63
2022-08-07T21:31:49.249Z,154571.38
2022-08-07T21:34:21.794Z,154541.59
2022-08-07T21:37:00.429Z,154549.31
2022-08-07T21:39:47.714Z,154558.44
2022-08-07T21:42:49.471Z,154526.03
2022-08-07T21:46:04.707Z,154497.53
2022-08-07T21:48:28.818Z,154541.59
2022-08-07T21:51:20.401Z,154586.94
2022-08-07T21:53:54.458Z,154544.19
2022-08-07T21:56:36.148Z,154592.09
2022-08-07T21:59:10.623Z,154548.03
2022-08-07T22:01:50.335Z,154558.44
2022-08-07T22:04:51.194Z,154526.03
2022-08-07T22:07:31.708Z,154509.19
2022-08-07T22:10:17.008Z,154504.03
2022-08-07T22:12:49.606Z,154447.06
2022-08-07T22:16:39.028Z,154432.81
2022-08-07T22:18:12.195Z,154436.72
2022-08-07T22:20:49.526Z,154408.22
2022-08-07T22:23:25.290Z,154382.28
2022-08-07T22:26:02.308Z,154365.44
2022-08-07T22:28:41.932Z,154313.69
2022-08-07T22:31:56.213Z,154285.19
2022-08-07T22:34:16.553Z,154289.09
2022-08-07T22:36:52.924Z,154277.41
2022-08-07T22:39:30.027Z,154299.44
2022-08-07T22:42:25.923Z,154278.69
2022-08-07T22:44:59.135Z,154294.25
2022-08-07T22:47:40.671Z,154278.69
2022-08-07T22:50:29.076Z,154304.59
2022-08-07T22:53:18.279Z,154298.13
2022-08-07T22:56:09.062Z,154309.78
2022-08-07T22:58:56.131Z,154273.56
2022-08-07T23:01:50.707Z,154258.03
2022-08-07T23:04:29.924Z,154237.28
2022-08-07T23:07:18.456Z,154237.28
2022-08-07T23:10:37.797Z,154188.13
2022-08-07T23:13:11.790Z,154157.06
2022-08-07T23:16:06.452Z,154159.66
2022-08-07T23:18:44.959Z,154144.13
2022-08-07T23:21:30.367Z,154126.00
2022-08-07T23:24:27.975Z,154124.72
2022-08-07T23:27:17.581Z,154120.81
2022-08-07T23:30:37.642Z,154110.47
2022-08-07T23:34:35.691Z,154131.16
2022-08-07T23:36:29.121Z,154132.47
2022-08-07T23:39:08.699Z,154136.34
2022-08-07T23:42:04.637Z,154106.59
2022-08-07T23:44:58.733Z,154067.78
2022-08-07T23:47:51.600Z,154047.06
2022-08-07T23:50:30.234Z,153999.25
2022-08-07T23:53:11.785Z,154008.28
2022-08-07T23:55:55.553Z,153995.34
2022-08-07T23:58:27.464Z,154010.88
